createdAt,value
2023-04-14T00:02:50.857Z,16.87
2023-04-14T00:05:52.411Z,16.87
2023-04-14T00:08:53.828Z,16.87
2023-04-14T00:11:56.461Z,16.87
2023-04-14T00:14:57.881Z,16.87
2023-04-14T00:17:59.324Z,16.88
2023-04-14T00:21:02.379Z,16.87
2023-04-14T00:24:03.984Z,16.86
2023-04-14T00:27:05.609Z,16.86
2023-04-14T00:30:07.387Z,16.85
2023-04-14T00:33:09.140Z,16.86
2023-04-14T00:36:10.561Z,16.84
2023-04-14T00:39:12.009Z,16.84
2023-04-14T00:42:13.383Z,16.83
2023-04-14T00:45:15.195Z,16.83
2023-04-14T00:48:18.287Z,16.83
2023-04-14T00:51:19.708Z,16.82
2023-04-14T00:54:21.383Z,16.82
2023-04-14T00:57:22.838Z,16.81
2023-04-14T01:00:24.261Z,16.81
2023-04-14T01:03:26.251Z,16.80
2023-04-14T01:06:28.193Z,16.80
2023-04-14T01:09:30.016Z,16.79
2023-04-14T01:12:50.836Z,16.78
2023-04-14T01:16:01.004Z,16.77
2023-04-14T01:19:18.021Z,16.78
2023-04-14T01:22:22.218Z,16.77
2023-04-14T01:25:42.432Z,16.77
2023-04-14T01:29:06.675Z,16.77
2023-04-14T01:32:10.131Z,16.75
2023-04-14T01:35:13.345Z,16.74
2023-04-14T01:38:23.725Z,16.74
2023-04-14T01:41:28.505Z,16.74
2023-04-14T01:44:31.239Z,16.73
2023-04-14T01:47:33.610Z,16.72
2023-04-14T01:50:37.081Z,16.72
2023-04-14T01:53:40.009Z,16.72
2023-04-14T01:56:42.119Z,16.72
2023-04-14T01:59:44.670Z,16.71
2023-04-14T02:02:49.069Z,16.69
2023-04-14T02:05:52.309Z,16.70
2023-04-14T02:08:53.799Z,16.68
2023-04-14T02:11:55.755Z,16.70
2023-04-14T02:14:58.836Z,16.67
2023-04-14T02:18:02.602Z,16.67
2023-04-14T02:21:04.206Z,16.66
2023-04-14T02:24:05.806Z,16.66
2023-04-14T02:27:09.078Z,16.66
2023-04-14T02:30:12.570Z,16.64
2023-04-14T02:33:17.161Z,16.64
2023-04-14T02:36:32.454Z,16.64
2023-04-14T02:39:40.245Z,16.63
2023-04-14T02:42:44.904Z,16.62
2023-04-14T02:45:49.028Z,16.63
2023-04-14T02:48:51.707Z,16.62
2023-04-14T02:51:54.316Z,16.62
2023-04-14T02:54:56.783Z,16.61
2023-04-14T02:57:59.645Z,16.61
2023-04-14T03:01:02.583Z,16.61
2023-04-14T03:04:04.540Z,16.60
2023-04-14T03:07:09.276Z,16.60
2023-04-14T03:10:11.849Z,16.59
2023-04-14T03:13:15.325Z,16.60
2023-04-14T03:16:19.041Z,16.58
2023-04-14T03:19:24.751Z,16.57
2023-04-14T03:22:29.490Z,16.57
2023-04-14T03:25:32.821Z,16.56
2023-04-14T03:28:37.813Z,16.56
2023-04-14T03:31:44.311Z,16.56
2023-04-14T03:34:48.679Z,16.55
2023-04-14T03:37:51.736Z,16.55
2023-04-14T03:40:54.949Z,16.55
2023-04-14T03:43:58.614Z,16.54
2023-04-14T03:47:03.471Z,16.53
2023-04-14T03:50:09.156Z,16.53
2023-04-14T03:53:12.618Z,16.51
2023-04-14T03:56:15.517Z,16.51
2023-04-14T03:59:19.112Z,16.50
2023-04-14T04:02:22.242Z,16.50
2023-04-14T04:05:24.113Z,16.49
2023-04-14T04:08:25.718Z,16.49
2023-04-14T04:11:27.765Z,16.48
2023-04-14T04:14:30.353Z,16.48
2023-04-14T04:17:32.454Z,16.47
2023-04-14T04:20:37.195Z,16.46
2023-04-14T04:23:41.675Z,16.46
2023-04-14T04:26:43.938Z,16.47
2023-04-14T04:29:45.677Z,16.45
2023-04-14T04:32:47.333Z,16.44
2023-04-14T04:35:49.068Z,16.44
2023-04-14T04:38:50.742Z,16.44
2023-04-14T04:42:01.441Z,16.43
2023-04-14T04:45:03.022Z,16.43
2023-04-14T04:48:04.848Z,16.44
2023-04-14T04:51:06.299Z,16.46
2023-04-14T04:54:07.886Z,16.46
2023-04-14T04:57:10.453Z,16.47
2023-04-14T05:00:12.674Z,16.48
2023-04-14T05:03:14.085Z,16.50
2023-04-14T05:06:16.492Z,16.52
2023-04-14T05:09:17.894Z,16.53
2023-04-14T05:12:19.279Z,16.57
2023-04-14T05:15:21.308Z,16.59
2023-04-14T05:18:22.673Z,16.61
2023-04-14T05:21:24.120Z,16.62
2023-04-14T05:24:25.530Z,16.64
2023-04-14T05:27:26.999Z,16.65
2023-04-14T05:30:28.405Z,16.66
2023-04-14T05:33:29.861Z,16.66
2023-04-14T05:36:31.686Z,16.65
2023-04-14T05:39:34.346Z,16.66
2023-04-14T05:42:35.807Z,16.66
2023-04-14T05:45:37.188Z,16.65
2023-04-14T05:48:38.780Z,16.64
2023-04-14T05:51:40.635Z,16.65
2023-04-14T05:54:43.195Z,16.65
2023-04-14T05:57:44.830Z,16.64
2023-04-14T06:00:46.352Z,16.64
2023-04-14T06:03:48.022Z,16.65
2023-04-14T06:06:49.617Z,16.63
2023-04-14T06:09:51.363Z,16.63
2023-04-14T06:12:52.737Z,16.62
2023-04-14T06:15:55.953Z,16.62
2023-04-14T06:18:57.341Z,16.61
2023-04-14T06:21:58.742Z,16.61
2023-04-14T06:25:00.684Z,16.59
2023-04-14T06:28:05.394Z,16.60
2023-04-14T06:31:06.772Z,16.58
2023-04-14T06:34:08.163Z,16.58
2023-04-14T06:37:09.539Z,16.58
2023-04-14T06:40:11.283Z,16.57
2023-04-14T06:43:14.119Z,16.56
2023-04-14T06:46:17.221Z,16.56
2023-04-14T06:49:19.879Z,16.55
2023-04-14T06:52:21.285Z,16.53
2023-04-14T06:55:22.668Z,16.52
2023-04-14T06:58:24.534Z,16.52
2023-04-14T07:01:25.983Z,16.51
2023-04-14T07:04:27.403Z,16.49
2023-04-14T07:07:28.847Z,16.49
2023-04-14T07:10:30.395Z,16.49
2023-04-14T07:13:32.293Z,16.49
2023-04-14T07:16:33.769Z,16.49
2023-04-14T07:19:35.220Z,16.47
2023-04-14T07:22:36.637Z,16.46
2023-04-14T07:25:38.159Z,16.47
2023-04-14T07:28:39.525Z,16.45
2023-04-14T07:31:41.155Z,16.45
2023-04-14T07:34:43.973Z,16.46
2023-04-14T07:37:45.618Z,16.45
2023-04-14T07:40:46.988Z,16.46
2023-04-14T07:43:48.358Z,16.46
2023-04-14T07:46:49.710Z,16.44
2023-04-14T07:49:53.041Z,16.46
2023-04-14T07:52:54.507Z,16.45
2023-04-14T07:55:55.993Z,16.45
2023-04-14T07:58:57.385Z,16.46
2023-04-14T08:01:58.868Z,16.46
2023-04-14T08:05:00.546Z,16.45
2023-04-14T08:08:01.988Z,16.46
2023-04-14T08:11:03.378Z,16.45
2023-04-14T08:14:04.862Z,16.45
2023-04-14T08:17:06.224Z,16.46
2023-04-14T08:20:08.093Z,16.45
2023-04-14T08:23:09.488Z,16.45
2023-04-14T08:26:11.561Z,16.45
2023-04-14T08:29:12.927Z,16.46
2023-04-14T08:32:14.264Z,16.45
2023-04-14T08:35:39.581Z,16.44
2023-04-14T08:38:37.644Z,16.44
2023-04-14T08:41:39.574Z,16.44
2023-04-14T08:44:40.913Z,16.44
2023-04-14T08:47:43.366Z,16.44
2023-04-14T08:50:49.309Z,16.44
2023-04-14T08:53:53.025Z,16.43
2023-04-14T08:56:57.395Z,16.43
2023-04-14T08:59:58.938Z,16.43
2023-04-14T09:03:00.783Z,16.43
2023-04-14T09:06:02.690Z,16.42
2023-04-14T09:09:06.804Z,16.42
2023-04-14T09:12:08.395Z,16.43
2023-04-14T09:15:10.130Z,16.42
2023-04-14T09:18:11.924Z,16.41
2023-04-14T09:21:31.187Z,16.42
2023-04-14T09:24:35.164Z,16.42
2023-04-14T09:27:36.988Z,16.41
2023-04-14T09:30:38.623Z,16.40
2023-04-14T09:33:43.269Z,16.41
2023-04-14T09:37:05.201Z,16.41
2023-04-14T09:40:06.844Z,16.41
2023-04-14T09:43:08.330Z,16.40
2023-04-14T09:46:10.585Z,16.40
2023-04-14T09:49:12.069Z,16.39
2023-04-14T09:52:13.416Z,16.39
2023-04-14T09:55:15.931Z,16.38
2023-04-14T09:58:23.013Z,16.38
2023-04-14T10:01:28.502Z,16.38
2023-04-14T10:04:29.992Z,16.38
2023-04-14T10:07:31.757Z,16.37
2023-04-14T10:10:33.187Z,16.36
2023-04-14T10:13:34.584Z,16.37
2023-04-14T10:16:36.194Z,16.36
2023-04-14T10:19:37.894Z,16.35
2023-04-14T10:22:41.334Z,16.36
2023-04-14T10:25:42.895Z,16.36
2023-04-14T10:28:51.329Z,16.35
2023-04-14T10:32:05.289Z,16.35
2023-04-14T10:35:07.071Z,16.33
2023-04-14T10:38:08.861Z,16.33
2023-04-14T10:41:11.482Z,16.33
2023-04-14T10:44:26.241Z,16.33
2023-04-14T10:47:28.055Z,16.32
2023-04-14T10:50:31.929Z,16.31
2023-04-14T10:53:39.295Z,16.32
2023-04-14T10:56:41.339Z,16.30
2023-04-14T10:59:43.251Z,16.30
2023-04-14T11:02:54.378Z,16.30
2023-04-14T11:05:56.031Z,16.29
2023-04-14T11:08:58.142Z,16.28
2023-04-14T11:12:18.195Z,16.28
2023-04-14T11:15:19.607Z,16.27
2023-04-14T11:18:32.505Z,16.28
2023-04-14T11:21:33.874Z,16.28
2023-04-14T11:24:35.305Z,16.28
2023-04-14T11:27:39.444Z,16.29
2023-04-14T11:30:40.840Z,16.28
2023-04-14T11:33:42.535Z,16.29
2023-04-14T11:36:44.254Z,16.30
2023-04-14T11:39:46.295Z,16.29
2023-04-14T11:42:51.167Z,16.31
2023-04-14T11:45:52.680Z,16.32
2023-04-14T11:48:57.123Z,16.32
2023-04-14T11:52:03.955Z,16.32
2023-04-14T11:55:06.392Z,16.32
2023-04-14T11:58:07.862Z,16.32
2023-04-14T12:01:10.558Z,16.32
2023-04-14T12:04:12.484Z,16.32
2023-04-14T12:07:14.713Z,16.33
2023-04-14T12:10:16.337Z,16.34
2023-04-14T12:13:18.736Z,16.34
2023-04-14T12:16:20.624Z,16.34
2023-04-14T12:19:22.051Z,16.34
2023-04-14T12:22:27.662Z,16.36
2023-04-14T12:25:35.499Z,16.35
2023-04-14T12:28:39.032Z,16.35
2023-04-14T12:31:44.048Z,16.36
2023-04-14T12:34:54.975Z,16.35
2023-04-14T12:37:56.689Z,16.36
2023-04-14T12:40:58.193Z,16.35
2023-04-14T12:43:59.582Z,16.35
2023-04-14T12:47:01.502Z,16.34
2023-04-14T12:50:22.290Z,16.35
2023-04-14T12:53:28.418Z,16.37
2023-04-14T12:56:29.818Z,16.36
2023-04-14T12:59:31.595Z,16.36
2023-04-14T13:02:33.347Z,16.36
2023-04-14T13:05:34.922Z,16.36
2023-04-14T13:08:36.261Z,16.36
2023-04-14T13:11:37.614Z,16.35
2023-04-14T13:14:39.193Z,16.37
2023-04-14T13:17:41.008Z,16.36
2023-04-14T13:20:42.451Z,16.36
2023-04-14T13:23:44.273Z,16.35
2023-04-14T13:26:46.149Z,16.35
2023-04-14T13:29:47.517Z,16.34
2023-04-14T13:32:48.972Z,16.33
2023-04-14T13:35:50.989Z,16.33
2023-04-14T13:38:52.806Z,16.33
2023-04-14T13:41:54.256Z,16.32
2023-04-14T13:44:55.662Z,16.31
2023-04-14T13:47:57.068Z,16.32
2023-04-14T13:50:59.423Z,16.30
2023-04-14T13:54:00.864Z,16.30
2023-04-14T13:57:02.680Z,16.29
2023-04-14T14:00:09.253Z,16.27
2023-04-14T14:03:10.883Z,16.27
2023-04-14T14:06:12.437Z,16.25
2023-04-14T14:09:13.810Z,16.26
2023-04-14T14:12:16.939Z,16.24
2023-04-14T14:15:18.393Z,16.24
2023-04-14T14:18:19.770Z,16.22
2023-04-14T14:21:21.127Z,16.23
2023-04-14T14:24:22.520Z,16.23
2023-04-14T14:27:23.909Z,16.23
2023-04-14T14:30:25.578Z,16.23
2023-04-14T14:33:26.963Z,16.22
2023-04-14T14:36:29.341Z,16.22
2023-04-14T14:39:32.493Z,16.22
2023-04-14T14:42:33.924Z,16.21
2023-04-14T14:45:35.355Z,16.24
2023-04-14T14:48:36.834Z,16.24
2023-04-14T14:51:38.384Z,16.26
2023-04-14T14:54:39.700Z,16.28
2023-04-14T14:57:41.848Z,16.30
2023-04-14T15:00:43.293Z,16.33
2023-04-14T15:03:45.639Z,16.35
2023-04-14T15:06:47.193Z,16.39
2023-04-14T15:09:49.279Z,16.41
2023-04-14T15:12:50.696Z,16.45
2023-04-14T15:15:52.054Z,16.46
2023-04-14T15:18:53.576Z,16.49
2023-04-14T15:21:55.002Z,16.49
2023-04-14T15:24:56.456Z,16.51
2023-04-14T15:27:57.824Z,16.53
2023-04-14T15:30:59.191Z,16.53
2023-04-14T15:34:02.567Z,16.55
2023-04-14T15:37:04.128Z,16.54
2023-04-14T15:40:07.848Z,16.57
2023-04-14T15:43:10.385Z,16.60
2023-04-14T15:46:13.315Z,16.59
2023-04-14T15:49:17.237Z,16.61
2023-04-14T15:52:18.594Z,16.61
2023-04-14T15:55:20.193Z,16.62
2023-04-14T15:58:22.260Z,16.62
2023-04-14T16:01:23.730Z,16.63
2023-04-14T16:04:25.461Z,16.63
2023-04-14T16:07:27.941Z,16.62
2023-04-14T16:10:29.544Z,16.64
2023-04-14T16:13:30.896Z,16.64
2023-04-14T16:16:32.572Z,16.64
2023-04-14T16:19:33.917Z,16.63
2023-04-14T16:22:35.300Z,16.63
2023-04-14T16:25:36.780Z,16.63
2023-04-14T16:28:38.250Z,16.63
2023-04-14T16:31:39.650Z,16.64
2023-04-14T16:34:41.157Z,16.65
2023-04-14T16:37:42.504Z,16.64
2023-04-14T16:40:43.941Z,16.64
2023-04-14T16:43:45.277Z,16.65
2023-04-14T16:46:46.745Z,16.65
2023-04-14T16:49:50.195Z,16.64
2023-04-14T16:52:52.310Z,16.61
2023-04-14T16:55:53.663Z,16.52
2023-04-14T16:58:55.311Z,16.43
2023-04-14T17:01:57.441Z,16.33
2023-04-14T17:04:59.182Z,16.24
2023-04-14T17:08:00.613Z,16.18
2023-04-14T17:11:02.181Z,16.10
2023-04-14T17:14:03.747Z,16.03
2023-04-14T17:17:05.389Z,15.97
2023-04-14T17:20:07.526Z,15.95
2023-04-14T17:23:09.343Z,15.99
2023-04-14T17:26:11.032Z,16.04
2023-04-14T17:29:12.525Z,16.09
2023-04-14T17:32:13.957Z,16.15
2023-04-14T17:35:15.376Z,16.19
2023-04-14T17:38:16.882Z,16.24
2023-04-14T17:41:18.746Z,16.27
2023-04-14T17:44:20.272Z,16.30
2023-04-14T17:47:22.011Z,16.33
2023-04-14T17:50:24.031Z,16.36
2023-04-14T17:53:25.871Z,16.38
2023-04-14T17:56:27.678Z,16.39
2023-04-14T17:59:29.164Z,16.41
2023-04-14T18:02:32.862Z,16.43
2023-04-14T18:05:34.412Z,16.47
2023-04-14T18:08:35.787Z,16.48
2023-04-14T18:11:37.343Z,16.49
2023-04-14T18:14:39.449Z,16.50
2023-04-14T18:17:41.553Z,16.53
2023-04-14T18:20:46.777Z,16.54
2023-04-14T18:24:47.916Z,16.55
2023-04-14T18:30:14.153Z,16.56
2023-04-14T18:33:15.508Z,16.57
2023-04-14T18:36:17.039Z,16.60
2023-04-14T18:39:18.790Z,16.60
2023-04-14T18:42:20.362Z,16.61
2023-04-14T18:45:22.037Z,16.61
2023-04-14T18:48:23.745Z,16.62
2023-04-14T18:51:25.833Z,16.64
2023-04-14T18:54:27.198Z,16.65
2023-04-14T18:57:29.130Z,16.65
2023-04-14T19:00:30.744Z,16.66
2023-04-14T19:03:32.368Z,16.67
2023-04-14T19:06:34.200Z,16.68
2023-04-14T19:09:36.117Z,16.67
2023-04-14T19:12:39.681Z,16.67
2023-04-14T19:15:41.700Z,16.67
2023-04-14T19:18:43.219Z,16.68
2023-04-14T19:21:44.589Z,16.68
2023-04-14T19:24:45.986Z,16.67
2023-04-14T19:27:47.427Z,16.69
2023-04-14T19:30:49.001Z,16.68
2023-04-14T19:33:50.442Z,16.69
2023-04-14T19:36:51.951Z,16.69
2023-04-14T19:39:53.322Z,16.70
2023-04-14T19:42:57.779Z,16.70
2023-04-14T19:46:03.454Z,16.72
2023-04-14T19:49:05.539Z,16.72
2023-04-14T19:52:06.914Z,16.72
2023-04-14T19:55:08.529Z,16.73
2023-04-14T19:58:10.551Z,16.73
2023-04-14T20:01:12.846Z,16.74
2023-04-14T20:04:14.290Z,16.73
2023-04-14T20:07:15.719Z,16.74
2023-04-14T20:10:17.284Z,16.73
2023-04-14T20:13:19.966Z,16.76
2023-04-14T20:16:21.954Z,16.75
2023-04-14T20:19:23.931Z,16.77
2023-04-14T20:22:25.756Z,16.79
2023-04-14T20:25:27.169Z,16.80
2023-04-14T20:28:28.675Z,16.81
2023-04-14T20:31:30.625Z,16.82
2023-04-14T20:34:32.982Z,16.83
2023-04-14T20:37:34.794Z,16.83
2023-04-14T20:40:37.099Z,16.85
2023-04-14T20:43:38.507Z,16.85
2023-04-14T20:46:40.432Z,16.86
2023-04-14T20:49:42.737Z,16.85
2023-04-14T20:52:44.660Z,16.87
2023-04-14T20:55:46.183Z,16.89
2023-04-14T20:58:47.590Z,16.89
2023-04-14T21:01:49.096Z,16.89
2023-04-14T21:04:50.677Z,16.91
2023-04-14T21:07:52.057Z,16.94
2023-04-14T21:11:15.962Z,16.94
2023-04-14T21:15:31.397Z,16.97
2023-04-14T21:17:36.509Z,16.99
2023-04-14T21:20:37.914Z,16.99
2023-04-14T21:23:39.322Z,17.01
2023-04-14T21:26:40.951Z,17.01
2023-04-14T21:29:42.393Z,17.02
2023-04-14T21:32:45.337Z,17.03
2023-04-14T21:35:46.747Z,17.04
2023-04-14T21:38:48.150Z,17.05
2023-04-14T21:41:49.553Z,17.05
2023-04-14T21:44:51.098Z,17.05
2023-04-14T21:47:52.574Z,17.04
2023-04-14T21:50:53.982Z,17.03
2023-04-14T21:53:55.699Z,17.04
2023-04-14T21:56:58.145Z,17.04
2023-04-14T21:59:59.555Z,17.04
2023-04-14T22:03:01.099Z,17.04
2023-04-14T22:06:02.674Z,17.05
2023-04-14T22:09:05.901Z,17.06
2023-04-14T22:12:07.419Z,17.05
2023-04-14T22:15:09.045Z,17.05
2023-04-14T22:18:10.698Z,17.06
2023-04-14T22:21:14.312Z,17.00
2023-04-14T22:24:15.693Z,16.84
2023-04-14T22:27:17.189Z,16.83
2023-04-14T22:30:18.604Z,16.85
2023-04-14T22:33:19.989Z,16.89
2023-04-14T22:36:21.520Z,16.91
2023-04-14T22:39:22.922Z,16.93
2023-04-14T22:42:25.804Z,16.94
2023-04-14T22:45:27.677Z,16.97
2023-04-14T22:48:29.109Z,16.98
2023-04-14T22:51:30.512Z,16.98
2023-04-14T22:54:31.932Z,17.00
2023-04-14T22:57:33.405Z,17.01
2023-04-14T23:00:34.789Z,16.99
2023-04-14T23:03:36.442Z,17.00
2023-04-14T23:06:38.300Z,17.00
2023-04-14T23:09:39.706Z,17.00
2023-04-14T23:12:41.123Z,17.01
2023-04-14T23:15:42.643Z,17.01
2023-04-14T23:18:44.057Z,17.01
2023-04-14T23:21:46.904Z,17.04
2023-04-14T23:24:50.133Z,17.02
2023-04-14T23:27:51.585Z,17.03
2023-04-14T23:30:53.036Z,17.04
2023-04-14T23:33:54.464Z,17.04
2023-04-14T23:36:55.924Z,17.03
2023-04-14T23:39:57.460Z,17.03
2023-04-14T23:42:59.501Z,17.05
2023-04-14T23:46:01.269Z,17.04
2023-04-14T23:49:11.132Z,17.04
2023-04-14T23:52:24.087Z,17.04
2023-04-14T23:55:25.473Z,17.04
2023-04-14T23:58:30.124Z,17.05
